createdAt,value
2018-10-09T00:00:25.151Z,11.70
2018-10-09T00:02:54.011Z,11.43
2018-10-09T00:05:22.851Z,12.40
2018-10-09T00:07:51.978Z,12.10
2018-10-09T00:10:21.405Z,11.20
2018-10-09T00:12:50.259Z,11.80
2018-10-09T00:15:19.069Z,11.33
2018-10-09T00:17:48.011Z,12.53
2018-10-09T00:20:24.373Z,11.47
2018-10-09T00:22:58.825Z,12.33
2018-10-09T00:28:24.943Z,12.23
2018-10-09T00:30:53.869Z,12.53
2018-10-09T00:33:22.720Z,12.03
2018-10-09T00:35:51.601Z,12.07
2018-10-09T00:38:20.445Z,13.23
2018-10-09T00:40:49.284Z,13.23
2018-10-09T00:43:18.077Z,13.30
2018-10-09T00:45:46.954Z,13.23
2018-10-09T00:48:15.775Z,13.77
2018-10-09T00:50:45.093Z,13.33
2018-10-09T00:53:13.964Z,13.37
2018-10-09T00:55:45.846Z,14.13
2018-10-09T00:58:14.656Z,14.77
2018-10-09T01:00:43.674Z,13.67
2018-10-09T01:03:12.558Z,14.33
2018-10-09T01:05:41.387Z,14.27
2018-10-09T01:08:10.199Z,14.10
2018-10-09T01:10:40.137Z,14.17
2018-10-09T01:13:10.265Z,14.83
2018-10-09T01:15:39.189Z,14.40
2018-10-09T01:18:07.981Z,15.03
2018-10-09T01:20:36.826Z,13.70
2018-10-09T01:23:06.614Z,14.63
2018-10-09T01:25:36.125Z,15.13
2018-10-09T01:28:05.190Z,14.63
2018-10-09T01:30:34.449Z,13.83
2018-10-09T01:33:03.737Z,16.20
2018-10-09T01:35:33.437Z,14.47
2018-10-09T01:38:02.424Z,15.43
2018-10-09T01:40:31.254Z,14.87
2018-10-09T01:43:01.818Z,14.97
2018-10-09T01:45:30.637Z,15.27
2018-10-09T01:47:59.492Z,17.00
2018-10-09T01:50:28.267Z,15.30
2018-10-09T01:52:57.110Z,15.93
2018-10-09T01:55:26.222Z,15.83
2018-10-09T01:57:56.076Z,15.13
2018-10-09T02:00:25.126Z,15.77
2018-10-09T02:02:53.958Z,16.20
2018-10-09T02:05:23.328Z,15.97
2018-10-09T02:07:52.750Z,16.40
2018-10-09T02:10:21.871Z,16.17
2018-10-09T02:12:50.789Z,16.33
2018-10-09T02:15:19.781Z,17.40
2018-10-09T02:17:48.614Z,15.60
2018-10-09T02:20:17.640Z,16.60
2018-10-09T02:22:46.534Z,17.33
2018-10-09T02:25:15.350Z,16.63
2018-10-09T02:27:44.638Z,16.70
2018-10-09T02:30:13.954Z,17.57
2018-10-09T02:32:42.797Z,17.40
2018-10-09T02:35:11.646Z,17.23
2018-10-09T02:37:40.521Z,17.97
2018-10-09T02:40:09.347Z,17.07
2018-10-09T02:42:38.267Z,17.77
2018-10-09T02:45:07.101Z,16.57
2018-10-09T02:47:35.932Z,18.83
2018-10-09T02:50:05.538Z,18.10
2018-10-09T02:52:34.351Z,18.07
2018-10-09T02:55:03.171Z,18.40
2018-10-09T02:57:32.003Z,17.93
2018-10-09T03:00:00.851Z,18.47
2018-10-09T03:02:29.842Z,18.03
2018-10-09T03:04:58.697Z,17.47
2018-10-09T03:07:27.529Z,17.77
2018-10-09T03:09:56.347Z,18.20
2018-10-09T03:12:25.146Z,18.77
2018-10-09T03:14:53.991Z,18.77
2018-10-09T03:17:23.133Z,18.83
2018-10-09T03:19:52.123Z,18.90
2018-10-09T03:22:21.273Z,17.30
2018-10-09T03:24:50.185Z,19.40
2018-10-09T03:27:19.010Z,18.27
2018-10-09T03:29:47.978Z,18.30
2018-10-09T03:32:16.803Z,18.17
2018-10-09T03:34:45.642Z,19.03
2018-10-09T03:37:14.473Z,17.60
2018-10-09T03:39:43.302Z,18.10
2018-10-09T03:42:12.119Z,18.33
2018-10-09T03:44:41.078Z,18.90
2018-10-09T03:47:09.894Z,17.73
2018-10-09T03:49:38.764Z,20.20
2018-10-09T03:52:07.640Z,18.83
2018-10-09T03:54:36.446Z,18.33
2018-10-09T03:57:05.277Z,19.57
2018-10-09T03:59:34.118Z,19.43
2018-10-09T04:02:02.967Z,18.60
2018-10-09T04:04:32.030Z,20.03
2018-10-09T04:07:01.353Z,19.10
2018-10-09T04:09:30.155Z,20.10
2018-10-09T04:11:58.964Z,19.73
2018-10-09T04:14:27.759Z,19.23
2018-10-09T04:16:56.574Z,18.43
2018-10-09T04:19:25.449Z,18.73
2018-10-09T04:21:54.355Z,20.80
2018-10-09T04:24:24.142Z,20.47
2018-10-09T04:26:53.057Z,20.23
2018-10-09T04:29:21.972Z,19.63
2018-10-09T04:31:50.766Z,21.43
2018-10-09T04:34:19.611Z,20.27
2018-10-09T04:36:48.609Z,21.17
2018-10-09T04:39:17.449Z,20.67
2018-10-09T04:41:46.422Z,19.93
2018-10-09T04:44:15.277Z,21.07
2018-10-09T04:46:44.075Z,21.30
2018-10-09T04:49:13.571Z,21.07
2018-10-09T04:51:42.572Z,22.07
2018-10-09T04:54:11.388Z,20.90
2018-10-09T04:56:40.206Z,21.47
2018-10-09T04:59:09.269Z,20.77
2018-10-09T05:01:38.157Z,20.73
2018-10-09T05:04:06.989Z,22.77
2018-10-09T05:06:36.070Z,22.47
2018-10-09T05:09:08.145Z,22.73
2018-10-09T05:11:36.982Z,23.07
2018-10-09T05:14:05.830Z,22.13
2018-10-09T05:16:34.756Z,20.93
2018-10-09T05:19:04.182Z,21.70
2018-10-09T05:21:33.244Z,22.40
2018-10-09T05:24:02.162Z,22.03
2018-10-09T05:26:30.985Z,21.83
2018-10-09T05:29:00.091Z,22.67
2018-10-09T05:31:28.969Z,22.53
2018-10-09T05:33:58.329Z,22.40
2018-10-09T05:36:27.139Z,22.27
2018-10-09T05:38:55.968Z,23.03
2018-10-09T05:41:24.783Z,21.43
2018-10-09T05:43:53.875Z,22.37
2018-10-09T05:46:22.682Z,22.73
2018-10-09T05:48:51.621Z,22.23
2018-10-09T05:51:20.894Z,22.47
2018-10-09T05:53:49.758Z,22.97
2018-10-09T05:56:18.566Z,22.40
2018-10-09T05:58:47.584Z,22.40
2018-10-09T06:01:16.406Z,22.40
2018-10-09T06:03:45.479Z,23.73
2018-10-09T06:06:14.320Z,25.53
2018-10-09T06:08:46.701Z,22.33
2018-10-09T06:11:15.698Z,22.73
2018-10-09T06:13:44.506Z,22.77
2018-10-09T06:16:13.389Z,23.37
2018-10-09T06:18:42.430Z,24.17
2018-10-09T06:21:11.351Z,23.63
2018-10-09T06:23:40.174Z,22.83
2018-10-09T06:26:09.002Z,23.07
2018-10-09T06:28:37.853Z,22.23
2018-10-09T06:31:06.975Z,22.47
2018-10-09T06:33:35.819Z,22.03
2018-10-09T06:36:04.614Z,22.70
2018-10-09T06:38:33.447Z,23.43
2018-10-09T06:41:02.277Z,23.20
2018-10-09T06:43:31.110Z,21.17
2018-10-09T06:45:59.950Z,21.50
2018-10-09T06:48:28.765Z,21.70
2018-10-09T06:50:58.035Z,21.20
2018-10-09T06:53:26.943Z,22.00
2018-10-09T06:55:55.757Z,26.10
2018-10-09T06:58:24.573Z,22.13
2018-10-09T07:00:53.374Z,21.27
2018-10-09T07:03:22.374Z,21.93
2018-10-09T07:05:51.213Z,21.23
2018-10-09T07:08:20.043Z,19.63
2018-10-09T07:10:48.871Z,20.60
2018-10-09T07:13:17.699Z,20.50
2018-10-09T07:15:46.955Z,20.20
2018-10-09T07:18:15.928Z,21.07
2018-10-09T07:20:44.747Z,20.43
2018-10-09T07:23:13.690Z,19.53
2018-10-09T07:25:42.586Z,21.10
2018-10-09T07:28:11.435Z,21.63
2018-10-09T07:30:40.310Z,20.30
2018-10-09T07:33:09.173Z,20.23
2018-10-09T07:35:38.012Z,18.90
2018-10-09T07:38:06.850Z,20.07
2018-10-09T07:40:35.743Z,19.83
2018-10-09T07:43:04.603Z,19.40
2018-10-09T07:45:33.428Z,20.00
2018-10-09T07:48:02.299Z,19.87
2018-10-09T07:50:31.202Z,19.30
2018-10-09T07:53:03.476Z,18.63
2018-10-09T07:55:32.308Z,18.40
2018-10-09T07:58:02.228Z,20.07
2018-10-09T08:00:31.914Z,19.23
2018-10-09T08:03:00.738Z,17.30
2018-10-09T08:05:29.594Z,17.27
2018-10-09T08:07:58.452Z,18.50
2018-10-09T08:10:27.427Z,17.73
2018-10-09T08:12:56.545Z,17.17
2018-10-09T08:15:25.446Z,18.03
2018-10-09T08:17:54.306Z,16.37
2018-10-09T08:20:26.689Z,16.13
2018-10-09T08:22:55.810Z,16.23
2018-10-09T08:25:24.620Z,16.73
2018-10-09T08:27:53.633Z,15.87
2018-10-09T08:30:23.345Z,16.37
2018-10-09T08:32:52.485Z,16.93
2018-10-09T08:35:21.341Z,17.20
2018-10-09T08:37:50.371Z,16.37
2018-10-09T08:40:19.286Z,16.60
2018-10-09T08:42:48.197Z,18.03
2018-10-09T08:45:17.027Z,15.77
2018-10-09T08:47:45.848Z,15.83
2018-10-09T08:50:14.684Z,15.77
2018-10-09T08:52:43.531Z,15.57
2018-10-09T08:55:14.490Z,16.10
2018-10-09T08:57:43.528Z,15.20
2018-10-09T09:00:12.403Z,14.90
2018-10-09T09:02:41.255Z,16.00
2018-10-09T09:05:09.962Z,14.90
2018-10-09T09:07:39.126Z,15.70
2018-10-09T09:10:07.971Z,15.50
2018-10-09T09:12:36.794Z,15.60
2018-10-09T09:15:05.627Z,14.97
2018-10-09T09:17:34.483Z,15.13
2018-10-09T09:20:03.354Z,15.10
2018-10-09T09:22:32.368Z,14.40
2018-10-09T09:25:01.185Z,14.63
2018-10-09T09:27:30.300Z,14.13
2018-10-09T09:29:59.047Z,13.30
2018-10-09T09:32:27.910Z,13.17
2018-10-09T09:34:56.737Z,14.27
2018-10-09T09:37:25.916Z,13.33
2018-10-09T09:39:54.750Z,12.77
2018-10-09T09:42:23.808Z,14.20
2018-10-09T09:44:52.626Z,12.43
2018-10-09T09:47:21.537Z,14.20
2018-10-09T09:49:50.355Z,14.13
2018-10-09T09:52:19.241Z,13.80
2018-10-09T09:54:48.114Z,13.37
2018-10-09T09:57:16.987Z,14.83
2018-10-09T09:59:46.112Z,12.80
2018-10-09T10:02:14.978Z,13.67
2018-10-09T10:04:43.827Z,13.70
2018-10-09T10:07:12.654Z,12.33
2018-10-09T10:09:41.573Z,12.87
2018-10-09T10:12:10.550Z,13.50
2018-10-09T10:14:39.382Z,13.17
2018-10-09T10:17:08.230Z,14.23
2018-10-09T10:19:37.111Z,13.10
2018-10-09T10:22:06.075Z,14.07
2018-10-09T10:24:34.994Z,13.57
2018-10-09T10:27:03.830Z,13.00
2018-10-09T10:29:32.776Z,12.37
2018-10-09T10:32:01.582Z,12.07
2018-10-09T10:34:30.595Z,12.60
2018-10-09T10:36:59.431Z,11.47
2018-10-09T10:39:28.275Z,11.77
2018-10-09T10:41:57.224Z,12.07
2018-10-09T10:44:29.425Z,12.33
2018-10-09T10:46:58.463Z,11.60
2018-10-09T10:49:27.337Z,12.90
2018-10-09T10:51:56.097Z,12.37
2018-10-09T10:54:24.907Z,13.23
2018-10-09T10:56:53.831Z,12.70
2018-10-09T10:59:22.647Z,13.93
2018-10-09T11:01:51.609Z,14.37
2018-10-09T11:04:20.383Z,12.77
2018-10-09T11:06:49.188Z,13.93
2018-10-09T11:09:18.199Z,14.07
2018-10-09T11:11:47.021Z,12.20
2018-10-09T11:14:15.885Z,12.23
2018-10-09T11:16:46.897Z,12.83
2018-10-09T11:19:15.731Z,12.13
2018-10-09T11:21:44.626Z,13.33
2018-10-09T11:24:13.473Z,12.23
2018-10-09T11:26:45.015Z,12.27
2018-10-09T11:29:16.438Z,10.47
2018-10-09T11:31:45.414Z,9.33
2018-10-09T11:34:14.276Z,9.13
2018-10-09T11:36:43.094Z,8.47
2018-10-09T11:39:12.538Z,8.60
2018-10-09T11:41:41.419Z,9.63
2018-10-09T11:44:10.220Z,8.97
2018-10-09T11:46:39.697Z,10.07
2018-10-09T11:49:08.632Z,9.80
2018-10-09T11:51:37.597Z,10.17
2018-10-09T11:54:06.642Z,9.97
2018-10-09T11:56:35.482Z,10.63
2018-10-09T11:59:04.359Z,10.13
2018-10-09T12:01:33.163Z,10.70
2018-10-09T12:04:01.975Z,10.37
2018-10-09T12:06:30.798Z,11.33
2018-10-09T12:08:59.604Z,10.87
2018-10-09T12:11:28.463Z,11.50
2018-10-09T12:13:57.300Z,10.93
2018-10-09T12:16:26.111Z,11.77
2018-10-09T12:18:55.042Z,10.37
2018-10-09T12:21:24.596Z,10.80
2018-10-09T12:23:53.500Z,11.07
2018-10-09T12:26:22.509Z,11.23
2018-10-09T12:28:51.323Z,11.20
2018-10-09T12:31:20.179Z,11.37
2018-10-09T12:33:49.095Z,11.93
2018-10-09T12:36:17.920Z,10.87
2018-10-09T12:38:46.719Z,11.73
2018-10-09T12:41:15.583Z,10.30
2018-10-09T12:43:44.538Z,10.80
2018-10-09T12:46:13.346Z,10.40
2018-10-09T12:48:42.185Z,10.50
2018-10-09T12:51:12.227Z,10.90
2018-10-09T12:53:41.182Z,11.53
2018-10-09T12:56:10.012Z,10.60
2018-10-09T12:58:39.019Z,10.87
2018-10-09T13:01:07.856Z,11.40
2018-10-09T13:03:36.808Z,12.00
2018-10-09T13:06:05.606Z,11.13
2018-10-09T13:08:34.745Z,11.83
2018-10-09T13:11:03.564Z,11.97
2018-10-09T13:13:32.386Z,12.43
2018-10-09T13:16:01.274Z,12.70
2018-10-09T13:18:30.339Z,11.60
2018-10-09T13:20:59.256Z,12.60
2018-10-09T13:23:28.026Z,11.77
2018-10-09T13:25:56.839Z,11.47
2018-10-09T13:28:25.687Z,12.70
2018-10-09T13:30:54.596Z,11.60
2018-10-09T13:33:23.395Z,11.93
2018-10-09T13:35:52.439Z,12.37
2018-10-09T13:38:21.366Z,13.90
2018-10-09T13:40:50.131Z,12.57
2018-10-09T13:43:18.987Z,14.40
2018-10-09T13:45:47.851Z,13.97
2018-10-09T13:48:16.687Z,13.87
2018-10-09T13:50:45.514Z,13.63
2018-10-09T13:53:14.338Z,13.50
2018-10-09T13:55:43.183Z,13.73
2018-10-09T13:58:12.003Z,14.33
2018-10-09T14:00:40.847Z,13.33
2018-10-09T14:03:09.769Z,13.93
2018-10-09T14:05:38.512Z,13.90
2018-10-09T14:08:07.331Z,15.07
2018-10-09T14:10:36.162Z,14.70
2018-10-09T14:13:04.983Z,14.43
2018-10-09T14:15:33.802Z,14.37
2018-10-09T14:18:06.129Z,15.00
2018-10-09T14:20:35.168Z,14.53
2018-10-09T14:23:04.055Z,15.07
2018-10-09T14:25:32.867Z,14.83
2018-10-09T14:28:01.679Z,15.53
2018-10-09T14:30:30.588Z,15.20
2018-10-09T14:32:59.481Z,14.57
2018-10-09T14:35:28.331Z,14.83
2018-10-09T14:37:57.166Z,14.67
2018-10-09T14:40:25.988Z,14.50
2018-10-09T14:42:54.811Z,14.27
2018-10-09T14:45:23.694Z,14.53
2018-10-09T14:47:52.515Z,14.93
2018-10-09T14:50:21.384Z,17.50
2018-10-09T14:52:50.249Z,17.77
2018-10-09T14:55:19.102Z,18.07
2018-10-09T14:57:48.078Z,18.10
2018-10-09T15:00:16.899Z,17.63
2018-10-09T15:02:45.805Z,18.57
2018-10-09T15:05:14.645Z,17.53
2018-10-09T15:07:43.497Z,17.57
2018-10-09T15:10:12.294Z,17.90
2018-10-09T15:12:41.194Z,16.90
2018-10-09T15:15:10.049Z,17.57
2018-10-09T15:17:39.038Z,16.63
2018-10-09T15:20:10.756Z,17.03
2018-10-09T15:22:39.723Z,16.77
2018-10-09T15:25:08.660Z,17.40
2018-10-09T15:27:37.511Z,17.17
2018-10-09T15:30:06.323Z,16.30
2018-10-09T15:32:35.204Z,17.93
2018-10-09T15:35:04.067Z,16.77
2018-10-09T15:37:32.893Z,17.90
2018-10-09T15:40:01.827Z,16.13
2018-10-09T15:42:30.778Z,17.23
2018-10-09T15:44:59.645Z,17.63
2018-10-09T15:47:28.479Z,15.80
2018-10-09T15:49:57.545Z,17.03
2018-10-09T15:52:26.406Z,17.07
2018-10-09T15:54:55.220Z,16.23
2018-10-09T15:57:24.059Z,17.33
2018-10-09T15:59:53.613Z,17.60
2018-10-09T16:02:22.583Z,18.37
2018-10-09T16:04:51.447Z,19.37
2018-10-09T16:07:20.285Z,18.93
2018-10-09T16:09:49.175Z,18.23
2018-10-09T16:12:18.188Z,18.70
2018-10-09T16:14:47.210Z,18.13
2018-10-09T16:17:16.171Z,17.90
2018-10-09T16:19:45.007Z,18.63
2018-10-09T16:22:13.844Z,17.90
2018-10-09T16:24:42.938Z,17.80
2018-10-09T16:27:11.746Z,17.27
2018-10-09T16:29:40.562Z,17.40
2018-10-09T16:32:09.401Z,16.67
2018-10-09T16:34:38.243Z,17.30
2018-10-09T16:37:07.536Z,16.40
2018-10-09T16:39:36.331Z,17.37
2018-10-09T16:42:05.190Z,17.60
2018-10-09T16:44:34.003Z,17.20
2018-10-09T16:47:05.754Z,16.97
2018-10-09T16:49:36.314Z,17.47
2018-10-09T16:52:05.154Z,17.83
2018-10-09T16:54:34.015Z,18.20
2018-10-09T16:57:02.859Z,16.47
2018-10-09T16:59:31.699Z,18.33
2018-10-09T17:02:00.530Z,17.77
2018-10-09T17:04:29.511Z,17.13
2018-10-09T17:06:58.354Z,16.40
2018-10-09T17:09:27.166Z,19.37
2018-10-09T17:11:55.981Z,21.83
2018-10-09T17:14:25.006Z,18.77
2018-10-09T17:16:53.824Z,18.40
2018-10-09T17:19:22.646Z,18.10
2018-10-09T17:21:51.442Z,18.40
2018-10-09T17:24:20.362Z,18.30
2018-10-09T17:26:49.288Z,16.97
2018-10-09T17:29:18.031Z,17.37
2018-10-09T17:31:47.069Z,18.50
2018-10-09T17:34:16.705Z,21.27
2018-10-09T17:36:45.495Z,18.77
2018-10-09T17:39:14.447Z,20.73
2018-10-09T17:41:43.213Z,20.63
2018-10-09T17:44:12.034Z,17.60
2018-10-09T17:46:40.955Z,17.77
2018-10-09T17:49:09.707Z,19.50
2018-10-09T17:51:38.532Z,19.37
2018-10-09T17:54:07.371Z,17.60
2018-10-09T17:56:36.178Z,19.27
2018-10-09T17:59:04.988Z,18.80
2018-10-09T18:01:33.829Z,19.23
2018-10-09T18:04:02.698Z,18.47
2018-10-09T18:06:32.366Z,17.87
2018-10-09T18:09:01.389Z,19.57
2018-10-09T18:11:30.214Z,24.50
2018-10-09T18:13:59.079Z,19.00
2018-10-09T18:16:27.914Z,18.87
2018-10-09T18:18:56.911Z,19.83
2018-10-09T18:21:25.771Z,18.67
2018-10-09T18:23:54.670Z,17.57
2018-10-09T18:26:23.596Z,18.27
2018-10-09T18:28:52.418Z,17.20
2018-10-09T18:31:21.423Z,16.57
2018-10-09T18:33:50.331Z,17.60
2018-10-09T18:36:19.180Z,18.57
2018-10-09T18:38:48.546Z,17.67
2018-10-09T18:41:17.565Z,16.53
2018-10-09T18:43:46.368Z,16.37
2018-10-09T18:46:15.254Z,15.80
2018-10-09T18:48:45.254Z,16.50
2018-10-09T18:51:14.131Z,16.87
2018-10-09T18:53:43.526Z,16.77
2018-10-09T18:56:12.594Z,16.17
2018-10-09T18:58:41.468Z,15.67
2018-10-09T19:01:10.534Z,13.87
2018-10-09T19:03:39.488Z,14.33
2018-10-09T19:06:08.295Z,13.57
2018-10-09T19:08:37.131Z,13.60
2018-10-09T19:11:06.283Z,13.07
2018-10-09T19:13:35.107Z,13.73
2018-10-09T19:16:03.963Z,13.70
2018-10-09T19:18:32.773Z,12.67
2018-10-09T19:21:01.619Z,14.33
2018-10-09T19:23:30.431Z,13.47
2018-10-09T19:25:59.218Z,13.43
2018-10-09T19:28:28.074Z,12.67
2018-10-09T19:30:57.084Z,12.53
2018-10-09T19:33:27.022Z,12.57
2018-10-09T19:35:56.668Z,12.80
2018-10-09T19:38:25.536Z,12.63
2018-10-09T19:40:54.569Z,12.33
2018-10-09T19:43:23.534Z,13.10
2018-10-09T19:45:52.402Z,11.97
2018-10-09T19:48:21.239Z,12.67
2018-10-09T19:50:50.297Z,12.07
2018-10-09T19:53:19.079Z,13.37
2018-10-09T19:55:47.973Z,14.70
2018-10-09T19:58:16.916Z,13.90
2018-10-09T20:00:45.810Z,12.83
2018-10-09T20:03:14.590Z,13.57
2018-10-09T20:05:43.399Z,12.57
2018-10-09T20:08:12.318Z,13.60
2018-10-09T20:10:41.163Z,13.30
2018-10-09T20:13:10.015Z,21.70
2018-10-09T20:15:38.902Z,17.10
2018-10-09T20:18:07.843Z,16.67
2018-10-09T20:20:36.930Z,15.97
2018-10-09T20:23:05.852Z,14.07
2018-10-09T20:25:34.730Z,14.60
2018-10-09T20:28:03.592Z,14.13
2018-10-09T20:30:32.459Z,14.10
2018-10-09T20:33:02.156Z,14.37
2018-10-09T20:35:31.102Z,13.43
2018-10-09T20:38:00.097Z,13.80
2018-10-09T20:40:29.084Z,13.40
2018-10-09T20:42:58.066Z,14.50
2018-10-09T20:45:26.926Z,14.23
2018-10-09T20:47:55.837Z,13.80
2018-10-09T20:50:25.276Z,14.63
2018-10-09T20:52:54.144Z,14.57
2018-10-09T20:55:23.023Z,14.50
2018-10-09T20:57:51.898Z,14.10
2018-10-09T21:00:20.741Z,13.57
2018-10-09T21:02:49.587Z,14.67
2018-10-09T21:05:18.441Z,14.13
2018-10-09T21:07:47.232Z,15.00
2018-10-09T21:10:16.068Z,15.03
2018-10-09T21:12:44.896Z,15.20
2018-10-09T21:15:13.754Z,14.13
2018-10-09T21:17:42.645Z,15.83
2018-10-09T21:20:11.425Z,15.50
2018-10-09T21:22:40.351Z,13.63
2018-10-09T21:25:09.322Z,14.83
2018-10-09T21:27:38.139Z,15.40
2018-10-09T21:30:07.182Z,15.83
2018-10-09T21:32:36.145Z,14.93
2018-10-09T21:35:05.080Z,16.00
2018-10-09T21:37:34.487Z,14.97
2018-10-09T21:40:03.439Z,15.30
2018-10-09T21:42:32.380Z,16.10
2018-10-09T21:45:01.253Z,15.83
2018-10-09T21:47:30.103Z,15.50
2018-10-09T21:49:59.054Z,15.73
2018-10-09T21:52:28.006Z,15.07
2018-10-09T21:54:56.946Z,15.13
2018-10-09T21:57:25.743Z,15.30
2018-10-09T21:59:54.568Z,14.47
2018-10-09T22:02:23.423Z,16.63
2018-10-09T22:04:52.266Z,15.23
2018-10-09T22:07:21.136Z,15.33
2018-10-09T22:09:49.995Z,15.57
2018-10-09T22:12:18.866Z,15.50
2018-10-09T22:14:47.682Z,15.70
2018-10-09T22:17:17.313Z,15.40
2018-10-09T22:19:46.279Z,15.97
2018-10-09T22:22:15.100Z,15.47
2018-10-09T22:24:43.978Z,16.43
2018-10-09T22:27:13.134Z,16.80
2018-10-09T22:29:41.971Z,16.13
2018-10-09T22:32:10.916Z,15.70
2018-10-09T22:34:39.794Z,16.90
2018-10-09T22:37:08.650Z,16.40
2018-10-09T22:39:37.625Z,17.03
2018-10-09T22:42:06.587Z,16.93
2018-10-09T22:44:36.300Z,18.37
2018-10-09T22:47:05.217Z,16.73
2018-10-09T22:49:34.166Z,16.77
2018-10-09T22:52:02.994Z,16.83
2018-10-09T22:54:32.126Z,18.37
2018-10-09T22:57:01.002Z,18.47
2018-10-09T22:59:30.193Z,17.00
2018-10-09T23:01:59.234Z,16.97
2018-10-09T23:04:28.095Z,17.10
2018-10-09T23:06:56.895Z,17.43
2018-10-09T23:09:25.763Z,17.10
2018-10-09T23:11:54.695Z,17.93
2018-10-09T23:14:23.682Z,18.87
2018-10-09T23:16:52.484Z,17.20
2018-10-09T23:19:21.278Z,17.90
2018-10-09T23:21:50.152Z,19.37
2018-10-09T23:24:19.007Z,18.77
2018-10-09T23:26:47.997Z,18.07
2018-10-09T23:29:16.828Z,18.03
2018-10-09T23:31:45.852Z,18.90
2018-10-09T23:34:14.694Z,19.17
2018-10-09T23:36:43.600Z,19.27
2018-10-09T23:39:12.463Z,19.07
2018-10-09T23:41:41.348Z,19.07
2018-10-09T23:44:10.141Z,19.40
2018-10-09T23:46:39.078Z,18.97
2018-10-09T23:49:08.010Z,19.80
2018-10-09T23:51:36.953Z,19.70
2018-10-09T23:54:05.882Z,19.40
2018-10-09T23:56:35.083Z,20.00
2018-10-09T23:59:03.911Z,20.03
